createdAt,value
2018-11-22T12:17:31.444Z,4.08
2018-11-22T12:20:00.428Z,4.16
2018-11-22T12:22:29.971Z,4.20
2018-11-22T12:24:59.379Z,4.11
2018-11-22T12:27:28.675Z,3.94
2018-11-22T12:29:57.926Z,3.71
2018-11-22T12:32:34.265Z,3.79
2018-11-22T12:35:08.337Z,3.79
2018-11-22T12:37:43.213Z,3.76
2018-11-22T12:40:11.319Z,3.70
2018-11-22T12:42:40.383Z,3.82
2018-11-22T12:45:10.388Z,3.88
2018-11-22T12:47:39.360Z,3.75
2018-11-22T12:50:10.041Z,3.69
2018-11-22T12:52:39.092Z,3.73
2018-11-22T12:55:09.774Z,3.85
2018-11-22T12:57:38.760Z,3.85
2018-11-22T13:00:10.700Z,3.90
2018-11-22T13:02:40.136Z,3.92
2018-11-22T13:05:10.552Z,3.98
2018-11-22T13:07:39.834Z,4.01
2018-11-22T13:10:11.630Z,4.03
2018-11-22T13:12:41.593Z,4.05
2018-11-22T13:15:12.448Z,4.09
2018-11-22T13:17:41.420Z,4.12
2018-11-22T13:20:14.310Z,4.13
2018-11-22T13:22:43.304Z,4.14
2018-11-22T13:25:21.026Z,4.06
2018-11-22T13:27:50.378Z,4.09
2018-11-22T13:30:22.824Z,4.07
2018-11-22T13:32:52.817Z,4.11
2018-11-22T13:35:22.588Z,4.18
2018-11-22T13:37:52.986Z,4.17
2018-11-22T13:40:22.218Z,4.25
2018-11-22T13:42:51.973Z,4.25
2018-11-22T13:45:25.067Z,4.15
2018-11-22T13:47:55.142Z,4.06
2018-11-22T13:50:26.692Z,4.11
2018-11-22T13:52:57.762Z,4.16
2018-11-22T13:55:27.160Z,4.11
2018-11-22T13:57:56.355Z,4.06
2018-11-22T14:00:26.986Z,4.05
2018-11-22T14:02:58.876Z,4.01
2018-11-22T14:05:28.306Z,3.98
2018-11-22T14:07:57.338Z,3.96
2018-11-22T14:10:26.605Z,3.94
2018-11-22T14:12:55.528Z,3.87
2018-11-22T14:15:27.063Z,3.93
2018-11-22T14:17:57.782Z,3.91
2018-11-22T14:20:28.954Z,3.89
2018-11-22T14:22:58.461Z,3.94
2018-11-22T14:25:27.946Z,3.96
2018-11-22T14:27:57.063Z,3.87
2018-11-22T14:30:28.059Z,3.91
2018-11-22T14:32:57.273Z,3.88
2018-11-22T14:35:26.873Z,3.86
2018-11-22T14:37:55.888Z,3.81
2018-11-22T14:40:27.292Z,3.80
2018-11-22T14:42:57.022Z,3.83
2018-11-22T14:45:26.561Z,3.85
2018-11-22T14:47:57.123Z,3.94
2018-11-22T14:50:29.758Z,3.85
2018-11-22T14:53:04.170Z,2.85
2018-11-22T14:55:33.610Z,3.89
2018-11-22T14:58:02.992Z,3.93
2018-11-22T15:00:32.335Z,3.84
2018-11-22T15:03:01.870Z,3.85
2018-11-22T15:05:31.562Z,3.82
2018-11-22T15:08:00.973Z,3.81
2018-11-22T15:10:30.034Z,3.80
2018-11-22T15:12:59.566Z,3.77
2018-11-22T15:15:29.507Z,3.74
2018-11-22T15:17:59.154Z,3.70
2018-11-22T15:20:28.339Z,3.72
2018-11-22T15:22:57.269Z,3.82
2018-11-22T15:25:27.948Z,3.84
2018-11-22T15:27:56.996Z,3.87
2018-11-22T15:30:27.843Z,3.91
2018-11-22T15:32:57.483Z,3.90
2018-11-22T15:35:28.387Z,3.89
2018-11-22T15:37:57.822Z,3.98
2018-11-22T15:40:27.609Z,3.83
2018-11-22T15:42:58.509Z,3.86
2018-11-22T15:45:34.854Z,3.81
2018-11-22T15:47:57.708Z,3.84
2018-11-22T15:50:28.005Z,3.83
2018-11-22T15:52:57.647Z,3.71
2018-11-22T15:55:27.400Z,3.80
2018-11-22T15:57:58.026Z,3.73
2018-11-22T16:00:29.151Z,3.62
2018-11-22T16:02:58.916Z,3.74
2018-11-22T16:05:28.832Z,3.71
2018-11-22T16:07:57.931Z,3.68
2018-11-22T16:10:28.371Z,3.74
2018-11-22T16:13:00.412Z,3.65
2018-11-22T16:15:34.708Z,3.62
2018-11-22T16:18:03.810Z,3.57
2018-11-22T16:20:33.479Z,3.66
2018-11-22T16:23:02.813Z,3.71
2018-11-22T16:25:32.442Z,3.59
2018-11-22T16:28:02.303Z,3.54
2018-11-22T16:30:32.377Z,3.61
2018-11-22T16:33:01.825Z,3.65
2018-11-22T16:35:33.339Z,3.76
2018-11-22T16:38:00.764Z,3.86
2018-11-22T16:40:30.554Z,3.69
2018-11-22T16:43:01.460Z,3.65
2018-11-22T16:45:33.162Z,3.58
2018-11-22T16:48:03.592Z,2.84
2018-11-22T16:50:34.745Z,3.50
2018-11-22T16:53:04.278Z,3.57
2018-11-22T16:55:33.404Z,3.60
2018-11-22T16:58:03.096Z,3.59
2018-11-22T17:00:35.540Z,2.88
2018-11-22T17:03:06.224Z,3.63
2018-11-22T17:05:35.815Z,3.61
2018-11-22T17:08:05.644Z,3.60
2018-11-22T17:10:35.782Z,3.64
2018-11-22T17:13:06.097Z,3.64
2018-11-22T17:15:36.677Z,3.57
2018-11-22T17:18:08.068Z,3.54
2018-11-22T17:20:37.180Z,3.44
2018-11-22T17:23:07.185Z,3.41
2018-11-22T17:25:36.958Z,3.41
2018-11-22T17:28:07.460Z,3.39
2018-11-22T17:30:40.774Z,3.44
2018-11-22T17:33:10.076Z,3.44
2018-11-22T17:35:39.911Z,3.44
2018-11-22T17:38:09.850Z,3.49
2018-11-22T17:40:40.866Z,3.50
2018-11-22T17:43:10.339Z,3.51
2018-11-22T17:45:41.156Z,3.29
2018-11-22T17:48:10.639Z,3.35
2018-11-22T17:50:41.114Z,3.39
2018-11-22T17:53:10.995Z,3.43
2018-11-22T17:55:39.981Z,3.54
2018-11-22T17:58:09.146Z,3.41
2018-11-22T18:00:39.683Z,3.19
2018-11-22T18:03:09.214Z,3.18
2018-11-22T18:05:38.335Z,3.33
2018-11-22T18:08:07.314Z,3.37
2018-11-22T18:10:38.193Z,3.42
2018-11-22T18:13:07.427Z,3.46
2018-11-22T18:15:41.298Z,3.37
2018-11-22T18:18:17.154Z,3.26
2018-11-22T18:20:46.124Z,3.13
2018-11-22T18:23:15.169Z,3.12
2018-11-22T18:25:48.913Z,3.26
2018-11-22T18:28:13.323Z,3.41
2018-11-22T18:30:42.796Z,3.46
2018-11-22T18:33:11.811Z,3.52
2018-11-22T18:35:40.849Z,3.62
2018-11-22T18:38:11.005Z,3.61
2018-11-22T18:41:42.923Z,3.59
2018-11-22T18:44:12.291Z,3.49
2018-11-22T18:46:41.564Z,3.49
2018-11-22T18:49:10.703Z,3.42
2018-11-22T18:51:40.176Z,3.48
2018-11-22T18:54:09.259Z,3.48
2018-11-22T18:56:38.590Z,3.47
2018-11-22T18:59:07.903Z,3.46
2018-11-22T19:01:37.077Z,3.38
2018-11-22T19:04:07.206Z,3.31
2018-11-22T19:06:36.777Z,3.27
2018-11-22T19:09:09.010Z,3.25
2018-11-22T19:11:38.533Z,3.22
2018-11-22T19:14:07.639Z,3.31
2018-11-22T19:16:37.003Z,3.34
2018-11-22T19:19:06.371Z,3.37
2018-11-22T19:21:40.921Z,3.38
2018-11-22T19:24:05.817Z,3.34
2018-11-22T19:26:35.188Z,3.17
2018-11-22T19:29:04.542Z,2.95
2018-11-22T19:31:33.958Z,2.87
2018-11-22T19:34:03.403Z,2.89
2018-11-22T19:36:32.986Z,3.03
2018-11-22T19:39:02.167Z,3.13
2018-11-22T19:41:31.551Z,3.19
2018-11-22T19:44:00.951Z,3.23
2018-11-22T19:46:30.570Z,3.30
2018-11-22T19:49:00.242Z,3.38
2018-11-22T19:51:29.976Z,3.32
2018-11-22T19:53:59.316Z,3.21
2018-11-22T19:56:28.935Z,3.24
2018-11-22T19:58:58.306Z,3.14
2018-11-22T20:01:27.359Z,0.69
2018-11-22T20:03:56.420Z,2.88
2018-11-22T20:06:25.710Z,2.78
2018-11-22T20:08:55.501Z,2.77
2018-11-22T20:11:24.627Z,2.84
2018-11-22T20:13:54.165Z,2.91
2018-11-22T20:16:23.464Z,2.86
2018-11-22T20:18:52.956Z,2.72
2018-11-22T20:21:22.412Z,2.69
2018-11-22T20:23:51.617Z,2.80
2018-11-22T20:26:21.094Z,2.97
2018-11-22T20:28:50.044Z,2.90
2018-11-22T20:31:19.366Z,2.97
2018-11-22T20:33:48.811Z,3.02
2018-11-22T20:36:18.110Z,3.07
2018-11-22T20:38:48.060Z,2.99
2018-11-22T20:41:17.576Z,2.68
2018-11-22T20:43:46.764Z,2.79
2018-11-22T20:46:16.237Z,2.81
2018-11-22T20:48:45.679Z,2.92
2018-11-22T20:51:14.872Z,2.98
2018-11-22T20:53:44.558Z,3.00
2018-11-22T20:56:13.563Z,3.02
2018-11-22T20:58:42.833Z,3.12
2018-11-22T21:01:12.276Z,2.98
2018-11-22T21:03:41.567Z,2.87
2018-11-22T21:06:10.761Z,2.98
2018-11-22T21:08:39.824Z,3.07
2018-11-22T21:11:09.255Z,3.18
2018-11-22T21:13:38.410Z,3.22
2018-11-22T21:16:07.843Z,3.02
2018-11-22T21:18:37.394Z,2.84
2018-11-22T21:21:07.004Z,2.71
2018-11-22T21:23:36.345Z,2.54
2018-11-22T21:26:06.051Z,2.55
2018-11-22T21:28:35.102Z,2.60
2018-11-22T21:31:04.153Z,2.63
2018-11-22T21:33:33.223Z,2.70
2018-11-22T21:36:02.257Z,2.72
2018-11-22T21:38:31.595Z,2.68
2018-11-22T21:41:01.103Z,2.72
2018-11-22T21:43:30.277Z,2.55
2018-11-22T21:45:59.519Z,2.63
2018-11-22T21:48:28.806Z,2.69
2018-11-22T21:50:57.986Z,2.78
2018-11-22T21:53:27.128Z,2.89
2018-11-22T21:55:56.213Z,2.90
2018-11-22T21:58:25.300Z,2.88
2018-11-22T22:00:54.420Z,2.90
2018-11-22T22:03:24.332Z,2.98
2018-11-22T22:05:53.749Z,3.01
2018-11-22T22:08:23.802Z,2.95
2018-11-22T22:10:54.516Z,2.95
2018-11-22T22:13:24.789Z,2.89
2018-11-22T22:15:53.889Z,2.86
2018-11-22T22:18:22.778Z,2.71
2018-11-22T22:20:51.851Z,2.66
2018-11-22T22:23:21.204Z,2.63
2018-11-22T22:25:50.317Z,2.72
2018-11-22T22:28:19.326Z,2.65
2018-11-22T22:30:48.285Z,2.73
2018-11-22T22:33:17.378Z,2.74
2018-11-22T22:35:46.303Z,2.63
2018-11-22T22:38:15.282Z,2.61
2018-11-22T22:40:44.228Z,2.64
2018-11-22T22:43:13.396Z,2.55
2018-11-22T22:45:42.476Z,2.38
2018-11-22T22:48:11.413Z,2.31
2018-11-22T22:50:40.295Z,2.44
2018-11-22T22:53:09.279Z,2.41
2018-11-22T22:55:38.288Z,2.36
2018-11-22T22:58:07.354Z,2.35
2018-11-22T23:00:45.827Z,2.33
2018-11-22T23:03:14.911Z,2.21
2018-11-22T23:05:43.960Z,2.13
2018-11-22T23:08:13.049Z,2.25
2018-11-22T23:10:42.192Z,2.26
2018-11-22T23:13:11.367Z,2.23
2018-11-22T23:15:40.386Z,2.31
2018-11-22T23:18:09.344Z,2.31
2018-11-22T23:20:38.654Z,2.45
2018-11-22T23:23:07.580Z,2.54
2018-11-22T23:25:36.621Z,2.42
2018-11-22T23:28:05.700Z,2.33
2018-11-22T23:30:35.744Z,2.31
2018-11-22T23:33:07.307Z,2.35
2018-11-22T23:35:36.415Z,2.43
2018-11-22T23:38:06.471Z,2.48
2018-11-22T23:40:36.063Z,2.58
2018-11-22T23:43:06.226Z,2.63
2018-11-22T23:45:34.928Z,2.60
2018-11-22T23:48:03.904Z,2.58
2018-11-22T23:50:33.558Z,2.60
2018-11-22T23:53:03.760Z,2.43
2018-11-22T23:55:33.183Z,2.44
2018-11-22T23:58:02.157Z,2.51
